Time;durP1;ratioP1;P1;durP2;ratioP2;P2;SDS_P1;SDS_P2;PMS_P1;PMS_P2;Temp;Humidity;BMP_temperature;BMP_pressure;BME280_temperature;BME280_humidity;BME280_pressure;Samples;Min_cycle;Max_cycle;Signal;HPM_P1;HPM_P2
2023/08/24 00:00:11;;;;;;;1999.90;999.90;;;27.30;99.90;;;;;;5075217;28;20082;-78
2023/08/24 00:02:37;;;;;;;1999.90;999.90;;;27.30;99.90;;;;;;5076630;28;20067;-79
2023/08/24 00:05:03;;;;;;;1999.90;999.90;;;27.20;99.90;;;;;;5076953;28;20028;-79
2023/08/24 00:07:29;;;;;;;1999.90;999.90;;;27.20;99.90;;;;;;5076536;28;20418;-73
2023/08/24 00:09:55;;;;;;;1999.90;999.90;;;27.20;99.90;;;;;;5076198;28;20159;-79
2023/08/24 00:12:21;;;;;;;1999.90;999.90;;;27.10;99.90;;;;;;5076336;28;20064;-79
2023/08/24 00:14:46;;;;;;;1999.90;999.90;;;27.10;99.90;;;;;;5074969;28;20028;-78
2023/08/24 00:17:12;;;;;;;1999.90;999.90;;;27.20;99.90;;;;;;5076734;28;20361;-79
2023/08/24 00:19:38;;;;;;;1999.90;999.90;;;27.20;99.90;;;;;;5076376;28;20094;-73
2023/08/24 00:22:03;;;;;;;1999.90;999.90;;;27.20;99.90;;;;;;5074747;28;20103;-73
2023/08/24 00:24:29;;;;;;;1999.90;999.90;;;27.10;99.90;;;;;;5083993;28;20107;-73
2023/08/24 00:26:55;;;;;;;1999.90;999.90;;;27.10;99.90;;;;;;5084472;28;20139;-79
2023/08/24 00:29:21;;;;;;;1999.90;999.90;;;27.10;99.90;;;;;;5088440;28;20028;-79
2023/08/24 00:31:47;;;;;;;1999.90;999.90;;;27.10;99.90;;;;;;5076301;28;20522;-73
2023/08/24 00:34:13;;;;;;;1999.90;999.90;;;27.10;99.90;;;;;;5075896;28;20028;-73
2023/08/24 00:36:38;;;;;;;1999.90;999.90;;;27.10;99.90;;;;;;5079772;28;20156;-79
2023/08/24 00:39:04;;;;;;;1999.90;999.90;;;27.10;99.90;;;;;;5089386;28;20033;-79
2023/08/24 00:41:30;;;;;;;1999.90;999.90;;;27.00;99.90;;;;;;5074443;28;20020;-79
2023/08/24 00:43:55;;;;;;;1999.90;999.90;;;27.00;99.90;;;;;;5075705;28;20426;-79
2023/08/24 00:46:22;;;;;;;1999.90;999.90;;;26.90;99.90;;;;;;5075683;28;20023;-79
2023/08/24 00:48:48;;;;;;;1999.90;999.90;;;27.00;99.90;;;;;;5057817;28;20024;-78
2023/08/24 00:51:14;;;;;;;1999.90;999.90;;;27.00;99.90;;;;;;5075943;28;20025;-78
2023/08/24 00:53:40;;;;;;;1999.90;999.90;;;27.00;99.90;;;;;;5075784;28;20017;-79
2023/08/24 00:56:06;;;;;;;1999.90;999.90;;;27.00;99.90;;;;;;5075704;28;20040;-78
2023/08/24 00:58:33;;;;;;;1999.90;999.90;;;27.00;99.90;;;;;;5075452;28;20035;-73
2023/08/24 01:00:58;;;;;;;1999.90;999.90;;;27.00;99.90;;;;;;5075520;28;20391;-73
2023/08/24 01:03:24;;;;;;;1999.90;999.90;;;27.00;99.90;;;;;;5075395;28;20048;-79
2023/08/24 01:05:51;;;;;;;1999.90;999.90;;;27.00;99.90;;;;;;5075574;28;20040;-79
2023/08/24 01:08:17;;;;;;;1999.90;999.90;;;26.90;99.90;;;;;;5075430;28;20037;-79
2023/08/24 01:10:48;;;;;;;1999.90;999.90;;;27.00;99.90;;;;;;5075103;28;20498;-78
2023/08/24 01:13:23;;;;;;;1999.90;999.90;;;26.90;99.90;;;;;;5075188;28;20107;-73
2023/08/24 01:15:55;;;;;;;1999.90;999.90;;;26.90;99.90;;;;;;5075307;28;20071;-79
2023/08/24 01:18:23;;;;;;;1999.90;999.90;;;26.90;99.90;;;;;;5075482;28;20056;-73
2023/08/24 01:20:49;;;;;;;1999.90;999.90;;;26.80;99.90;;;;;;5075357;28;20025;-79
2023/08/24 01:23:37;;;;;;;1999.90;999.90;;;26.80;99.90;;;;;;5081822;28;20028;-73
2023/08/24 01:26:12;;;;;;;1999.90;999.90;;;26.80;99.90;;;;;;5084120;28;20025;-73
2023/08/24 01:28:38;;;;;;;1999.90;999.90;;;26.80;99.90;;;;;;5090040;28;20054;-78
2023/08/24 01:31:05;;;;;;;1999.90;999.90;;;26.80;99.90;;;;;;5075242;28;20025;-79
2023/08/24 01:33:31;;;;;;;1999.90;999.90;;;26.70;99.90;;;;;;5075125;28;20453;-79
2023/08/24 01:35:56;;;;;;;1999.90;999.90;;;26.60;99.90;;;;;;5075667;28;20024;-79
2023/08/24 01:38:22;;;;;;;1999.90;999.90;;;26.60;99.90;;;;;;5094993;28;20506;-73
2023/08/24 01:41:16;;;;;;;1999.90;999.90;;;26.50;99.90;;;;;;5095061;28;20047;-79
2023/08/24 01:43:45;;;;;;;1999.90;999.90;;;26.50;99.90;;;;;;5059355;28;20490;-78
2023/08/24 01:46:16;;;;;;;1999.90;999.90;;;26.50;99.90;;;;;;5074605;28;20052;-78
2023/08/24 01:48:44;;;;;;;1999.90;999.90;;;26.50;99.90;;;;;;5074596;28;20099;-79
2023/08/24 01:51:10;;;;;;;1999.90;999.90;;;26.60;99.90;;;;;;5074617;28;20016;-73
2023/08/24 01:53:36;;;;;;;1999.90;999.90;;;26.60;99.90;;;;;;5074621;28;20523;-79
2023/08/24 01:56:12;;;;;;;1999.90;999.90;;;26.60;99.90;;;;;;5074472;28;20025;-78
2023/08/24 01:58:38;;;;;;;1999.90;999.90;;;26.60;99.90;;;;;;5073056;28;20029;-73
2023/08/24 02:01:05;;;;;;;1999.90;999.90;;;26.50;99.90;;;;;;5074488;28;20013;-79
2023/08/24 02:03:30;;;;;;;1999.90;999.90;;;26.50;99.90;;;;;;5074207;28;20041;-73
2023/08/24 02:05:56;;;;;;;1999.90;999.90;;;26.50;99.90;;;;;;5074351;28;20036;-73
2023/08/24 02:08:22;;;;;;;1999.90;999.90;;;26.50;99.90;;;;;;5072849;28;20025;-77
2023/08/24 02:10:48;;;;;;;1999.90;999.90;;;26.50;99.90;;;;;;5074033;28;20391;-79
2023/08/24 02:13:13;;;;;;;1999.90;999.90;;;26.50;99.90;;;;;;5074257;28;20025;-79
2023/08/24 02:15:39;;;;;;;1999.90;999.90;;;26.50;99.90;;;;;;5073329;28;20036;-73
2023/08/24 02:18:06;;;;;;;1999.90;999.90;;;26.50;99.90;;;;;;5074352;28;20033;-79
2023/08/24 02:20:35;;;;;;;1999.90;999.90;;;26.60;99.90;;;;;;5074199;28;20050;-79
2023/08/24 02:23:01;;;;;;;1999.90;999.90;;;26.60;99.90;;;;;;5079311;28;20024;-78
2023/08/24 02:25:27;;;;;;;1999.90;999.90;;;26.80;99.90;;;;;;5086639;28;20059;-79
2023/08/24 02:27:53;;;;;;;1999.90;999.90;;;26.80;99.90;;;;;;5080453;28;20403;-73
2023/08/24 02:30:18;;;;;;;1999.90;999.90;;;26.90;99.90;;;;;;5073920;28;20028;-73
2023/08/24 02:32:44;;;;;;;1999.90;999.90;;;27.00;99.90;;;;;;5074155;28;20051;-78
2023/08/24 02:35:09;;;;;;;1999.90;999.90;;;27.40;99.90;;;;;;5087323;28;20028;-78
2023/08/24 02:37:35;;;;;;;1999.90;999.90;;;28.00;99.90;;;;;;5093396;28;20036;-79
2023/08/24 02:40:01;;;;;;;1999.90;999.90;;;28.20;99.90;;;;;;5093921;28;20032;-78
2023/08/24 02:42:27;;;;;;;1999.90;999.90;;;28.20;99.90;;;;;;5093993;28;20124;-73
2023/08/24 02:44:52;;;;;;;1999.90;999.90;;;28.10;99.90;;;;;;5084268;28;20098;-73
2023/08/24 02:47:18;;;;;;;1999.90;999.90;;;27.80;99.90;;;;;;5094037;28;20028;-73
2023/08/24 02:49:43;;;;;;;1999.90;999.90;;;27.50;99.90;;;;;;5086025;28;20047;-79
2023/08/24 02:52:09;;;;;;;1999.90;999.90;;;27.40;99.90;;;;;;5073367;28;20082;-78
2023/08/24 02:54:34;;;;;;;1999.90;999.90;;;27.20;99.90;;;;;;5073621;28;20025;-73
2023/08/24 02:57:00;;;;;;;1999.90;999.90;;;26.90;99.90;;;;;;5073451;28;20391;-72
2023/08/24 02:59:26;;;;;;;1999.90;999.90;;;26.60;99.90;;;;;;5073462;28;20032;-73
2023/08/24 03:01:52;;;;;;;1999.90;999.90;;;26.50;99.90;;;;;;5072819;28;20105;-78
2023/08/24 03:04:18;;;;;;;1999.90;999.90;;;26.60;99.90;;;;;;5073405;28;20032;-79
2023/08/24 03:06:44;;;;;;;1999.90;999.90;;;27.00;99.90;;;;;;5073045;28;20376;-79
2023/08/24 03:09:10;;;;;;;1999.90;999.90;;;27.10;99.90;;;;;;5073344;28;20020;-73
2023/08/24 03:11:35;;;;;;;1999.90;999.90;;;27.20;99.90;;;;;;5073213;28;20514;-73
2023/08/24 03:14:01;;;;;;;1999.90;999.90;;;28.50;99.90;;;;;;5071397;28;20017;-73
2023/08/24 03:16:27;;;;;;;1999.90;999.90;;;28.40;99.90;;;;;;5073193;28;20438;-79
2023/08/24 03:18:52;;;;;;;1999.90;999.90;;;28.10;99.90;;;;;;5072915;28;20036;-79
2023/08/24 03:21:18;;;;;;;1999.90;999.90;;;27.80;99.90;;;;;;5072252;28;20483;-73
2023/08/24 03:23:43;;;;;;;1999.90;999.90;;;27.40;99.90;;;;;;5073885;28;20056;-73
2023/08/24 03:26:09;;;;;;;1999.90;999.90;;;27.20;99.90;;;;;;5082895;28;20392;-79
2023/08/24 03:28:34;;;;;;;1999.90;999.90;;;26.90;99.90;;;;;;5075718;28;20028;-78
2023/08/24 03:31:00;;;;;;;1999.90;999.90;;;26.90;99.90;;;;;;5083993;28;20028;-78
2023/08/24 03:33:27;;;;;;;1999.90;999.90;;;26.60;99.90;;;;;;5093317;28;20024;-73
2023/08/24 03:35:53;;;;;;;1999.90;999.90;;;26.00;99.90;;;;;;5093200;28;20095;-73
2023/08/24 03:38:19;;;;;;;1999.90;999.90;;;25.50;99.90;;;;;;5092998;28;20131;-78
2023/08/24 03:40:44;;;;;;;1999.90;999.90;;;25.30;99.90;;;;;;5093090;28;20024;-73
2023/08/24 03:43:11;;;;;;;1999.90;999.90;;;25.00;99.90;;;;;;5092251;28;20029;-78
2023/08/24 03:45:36;;;;;;;1999.90;999.90;;;24.90;99.90;;;;;;5072834;28;20048;-78
2023/08/24 03:48:02;;;;;;;1999.90;999.90;;;24.90;99.90;;;;;;5071677;28;20094;-73
2023/08/24 03:50:28;;;;;;;1999.90;999.90;;;24.90;99.90;;;;;;5072581;28;20095;-78
2023/08/24 03:52:54;;;;;;;1999.90;999.90;;;25.00;99.90;;;;;;5072867;28;20089;-78
2023/08/24 03:55:20;;;;;;;1999.90;999.90;;;25.00;99.90;;;;;;5072989;28;20024;-78
2023/08/24 03:57:46;;;;;;;1999.90;999.90;;;25.10;99.90;;;;;;5072520;28;20040;-78
2023/08/24 04:00:12;;;;;;;1999.90;999.90;;;25.30;99.90;;;;;;5072538;28;20032;-73
2023/08/24 04:02:38;;;;;;;1999.90;999.90;;;25.30;99.90;;;;;;5072316;28;20123;-73
2023/08/24 04:05:04;;;;;;;1999.90;999.90;;;25.30;99.90;;;;;;5072737;28;20024;-78
2023/08/24 04:07:31;;;;;;;1999.90;999.90;;;25.40;99.90;;;;;;5072475;28;20078;-78
2023/08/24 04:09:56;;;;;;;1999.90;999.90;;;25.40;99.90;;;;;;5072250;28;20103;-78
2023/08/24 04:12:22;;;;;;;1999.90;999.90;;;25.30;99.90;;;;;;5071185;28;20060;-74
2023/08/24 04:14:48;;;;;;;1999.90;999.90;;;25.20;99.90;;;;;;5072198;28;20158;-73
2023/08/24 04:17:14;;;;;;;1999.90;999.90;;;25.10;99.90;;;;;;5071203;28;20029;-74
2023/08/24 04:19:40;;;;;;;1999.90;999.90;;;25.10;99.90;;;;;;5072640;28;20035;-78
2023/08/24 04:22:05;;;;;;;1999.90;999.90;;;25.20;99.90;;;;;;5071977;28;20028;-78
2023/08/24 04:24:31;;;;;;;1999.90;999.90;;;25.20;99.90;;;;;;5082726;28;20035;-74
2023/08/24 04:26:56;;;;;;;1999.90;999.90;;;25.40;99.90;;;;;;5079860;28;20036;-73
2023/08/24 04:29:22;;;;;;;1999.90;999.90;;;25.50;99.90;;;;;;5088155;28;20020;-78
2023/08/24 04:31:47;;;;;;;1999.90;999.90;;;25.60;99.90;;;;;;5092692;28;20103;-78
2023/08/24 04:34:13;;;;;;;1999.90;999.90;;;25.70;99.90;;;;;;5082626;28;20563;-78
2023/08/24 04:36:39;;;;;;;1999.90;999.90;;;25.80;99.90;;;;;;5083371;28;20486;-78
2023/08/24 04:39:04;;;;;;;1999.90;999.90;;;25.80;99.90;;;;;;5083318;28;20032;-73
2023/08/24 04:41:30;;;;;;;1999.90;999.90;;;25.80;99.90;;;;;;5074583;28;20068;-73
2023/08/24 04:43:55;;;;;;;1999.90;999.90;;;25.90;99.90;;;;;;5075594;28;20019;-79
2023/08/24 04:46:21;;;;;;;1999.90;999.90;;;25.90;99.90;;;;;;5092211;28;20031;-78
2023/08/24 04:48:47;;;;;;;1999.90;999.90;;;25.80;99.90;;;;;;5096225;28;20020;-78
2023/08/24 04:51:13;;;;;;;1999.90;999.90;;;25.80;99.90;;;;;;5096162;28;20012;-76
2023/08/24 04:53:39;;;;;;;1999.90;999.90;;;25.80;99.90;;;;;;5095065;28;20039;-73
2023/08/24 04:56:04;;;;;;;1999.90;999.90;;;25.90;99.90;;;;;;5094789;28;20031;-78
2023/08/24 04:58:30;;;;;;;1999.90;999.90;;;25.80;99.90;;;;;;5087454;28;20027;-77
2023/08/24 05:00:55;;;;;;;1999.90;999.90;;;25.80;99.90;;;;;;5078636;28;20113;-78
2023/08/24 05:03:21;;;;;;;1999.90;999.90;;;25.70;99.90;;;;;;5092208;28;20048;-78
2023/08/24 05:05:47;;;;;;;1999.90;999.90;;;25.60;99.90;;;;;;5094310;28;20470;-78
2023/08/24 05:08:16;;;;;;;1999.90;999.90;;;25.60;99.90;;;;;;5075270;28;20034;-73
2023/08/24 05:10:42;;;;;;;1999.90;999.90;;;25.60;99.90;;;;;;5074181;28;20483;-77
2023/08/24 05:13:07;;;;;;;1999.90;999.90;;;25.70;99.90;;;;;;5073699;28;20074;-78
2023/08/24 05:15:33;;;;;;;1999.90;999.90;;;25.80;99.90;;;;;;5074108;28;20035;-78
2023/08/24 05:17:59;;;;;;;1999.90;999.90;;;25.80;99.90;;;;;;5073666;28;20494;-73
2023/08/24 05:20:28;;;;;;;1999.90;999.90;;;25.90;99.90;;;;;;5073568;28;20032;-74
2023/08/24 05:22:57;;;;;;;1999.90;999.90;;;26.00;99.90;;;;;;5078815;28;20028;-74
2023/08/24 05:25:23;;;;;;;1999.90;999.90;;;26.10;99.90;;;;;;5068469;28;20040;-79
2023/08/24 05:27:49;;;;;;;1999.90;999.90;;;26.10;99.90;;;;;;5070241;28;20024;-78
2023/08/24 05:30:14;;;;;;;1999.90;999.90;;;26.30;99.90;;;;;;5081695;28;20059;-74
2023/08/24 05:32:40;;;;;;;1999.90;999.90;;;26.70;99.90;;;;;;5083136;28;20024;-73
2023/08/24 05:35:06;;;;;;;1999.90;999.90;;;26.70;99.90;;;;;;5073295;28;20041;-78
2023/08/24 05:37:32;;;;;;;1999.90;999.90;;;26.60;99.90;;;;;;5070021;28;20027;-78
2023/08/24 05:39:59;;;;;;;1999.90;999.90;;;26.70;99.90;;;;;;5075156;28;20033;-78
2023/08/24 05:42:25;;;;;;;1999.90;999.90;;;26.90;99.90;;;;;;5074191;28;20035;-78
2023/08/24 05:44:51;;;;;;;1999.90;999.90;;;26.80;99.90;;;;;;5071018;28;20025;-73
2023/08/24 05:47:16;;;;;;;1999.90;999.90;;;26.60;99.90;;;;;;5070781;28;20028;-78
2023/08/24 05:49:42;;;;;;;1999.90;999.90;;;26.50;99.90;;;;;;5072590;28;20024;-77
2023/08/24 05:52:08;;;;;;;1999.90;999.90;;;26.40;99.90;;;;;;5071139;28;20028;-78
2023/08/24 05:54:33;;;;;;;1999.90;999.90;;;26.40;99.90;;;;;;5090554;28;20039;-78
2023/08/24 05:57:00;;;;;;;1999.90;999.90;;;26.40;99.90;;;;;;5087144;28;20029;-74
2023/08/24 05:59:26;;;;;;;1999.90;999.90;;;26.60;99.90;;;;;;5072859;28;20033;-73
2023/08/24 06:01:52;;;;;;;1999.90;999.90;;;26.70;99.90;;;;;;5071880;28;20119;-78
2023/08/24 06:04:18;;;;;;;1999.90;999.90;;;26.80;99.90;;;;;;5072690;28;20451;-78
2023/08/24 06:06:43;;;;;;;1999.90;999.90;;;26.90;99.90;;;;;;5068420;28;20074;-78
2023/08/24 06:09:09;;;;;;;1999.90;999.90;;;27.00;99.90;;;;;;5075421;28;20107;-79
2023/08/24 06:11:35;;;;;;;1999.90;999.90;;;27.10;99.90;;;;;;5073704;28;20057;-73
2023/08/24 06:14:01;;;;;;;1999.90;999.90;;;27.30;99.90;;;;;;5073851;28;20368;-80
2023/08/24 06:16:28;;;;;;;1999.90;999.90;;;27.40;99.90;;;;;;5071869;28;20064;-78
2023/08/24 06:18:55;;;;;;;1999.90;999.90;;;27.40;99.90;;;;;;5071792;28;20072;-79
2023/08/24 06:21:21;;;;;;;1999.90;999.90;;;27.40;99.90;;;;;;5080512;28;20054;-74
2023/08/24 06:23:47;;;;;;;1999.90;999.90;;;27.40;99.90;;;;;;5077320;28;20427;-74
2023/08/24 06:26:13;;;;;;;1999.90;999.90;;;27.40;99.90;;;;;;5077462;28;20029;-74
2023/08/24 06:28:40;;;;;;;1999.90;999.90;;;27.60;99.90;;;;;;5080150;28;20069;-78
2023/08/24 06:31:07;;;;;;;1999.90;999.90;;;27.80;99.90;;;;;;5079745;28;20037;-78
2023/08/24 06:33:34;;;;;;;1999.90;999.90;;;28.00;99.90;;;;;;5071350;28;20785;-78
2023/08/24 06:36:00;;;;;;;1999.90;999.90;;;28.20;99.90;;;;;;5071232;28;20033;-73
2023/08/24 06:38:25;;;;;;;1999.90;999.90;;;28.30;99.90;;;;;;5080432;28;20100;-73
2023/08/24 06:40:51;;;;;;;1999.90;999.90;;;28.50;99.90;;;;;;5075154;28;20021;-77
2023/08/24 06:43:17;;;;;;;1999.90;999.90;;;28.60;99.90;;;;;;5079313;28;20041;-74
2023/08/24 06:45:44;;;;;;;1999.90;999.90;;;28.70;99.90;;;;;;5070510;28;20060;-78
2023/08/24 06:48:09;;;;;;;1999.90;999.90;;;28.80;99.90;;;;;;5079832;28;20020;-77
2023/08/24 06:50:36;;;;;;;1999.90;999.90;;;28.80;99.90;;;;;;5070477;28;20433;-75
2023/08/24 06:53:03;;;;;;;1999.90;999.90;;;29.00;99.90;;;;;;5069144;28;20531;-79
2023/08/24 06:55:29;;;;;;;1999.90;999.90;;;29.10;99.90;;;;;;5070228;28;20034;-79
2023/08/24 06:57:54;;;;;;;1999.90;999.90;;;29.10;99.90;;;;;;5075794;28;20034;-78
2023/08/24 07:00:20;;;;;;;1999.90;999.90;;;28.80;99.90;;;;;;5067196;28;20036;-79
2023/08/24 07:02:47;;;;;;;1999.90;999.90;;;28.50;99.90;;;;;;5065090;28;20170;-74
2023/08/24 07:05:13;;;;;;;1999.90;999.90;;;28.30;99.90;;;;;;5068495;28;20028;-74
2023/08/24 07:07:39;;;;;;;1999.90;999.90;;;28.20;99.90;;;;;;5068596;28;20031;-77
2023/08/24 07:10:06;;;;;;;1999.90;999.90;;;28.00;99.90;;;;;;5067766;28;20391;-77
2023/08/24 07:12:31;;;;;;;1999.90;999.90;;;27.80;99.90;;;;;;5065937;28;20037;-78
2023/08/24 07:14:57;;;;;;;1999.90;999.90;;;27.70;99.90;;;;;;5065029;28;20024;-74
2023/08/24 07:17:23;;;;;;;1999.90;999.90;;;27.60;99.90;;;;;;5064524;28;20048;-74
2023/08/24 07:19:49;;;;;;;1999.90;999.90;;;27.40;99.90;;;;;;5073104;28;20036;-79
2023/08/24 07:22:14;;;;;;;1999.90;999.90;;;27.40;99.90;;;;;;5071267;28;20037;-77
2023/08/24 07:24:41;;;;;;;1999.90;999.90;;;27.10;99.90;;;;;;5070569;28;20012;-76
2023/08/24 07:27:08;;;;;;;1999.90;999.90;;;26.90;99.90;;;;;;5067854;28;20036;-78
2023/08/24 07:29:34;;;;;;;1999.90;999.90;;;26.80;99.90;;;;;;5070281;28;20115;-74
2023/08/24 07:31:59;;;;;;;1999.90;999.90;;;26.70;99.90;;;;;;5067138;28;20130;-78
2023/08/24 07:34:25;;;;;;;1999.90;999.90;;;26.50;99.90;;;;;;5070723;28;20687;-76
2023/08/24 07:36:51;;;;;;;1999.90;999.90;;;26.10;99.90;;;;;;5070117;28;20052;-77
2023/08/24 07:39:17;;;;;;;1999.90;999.90;;;25.60;99.90;;;;;;5064268;28;20033;-77
2023/08/24 07:41:44;;;;;;;1999.90;999.90;;;25.50;99.90;;;;;;5068006;28;20056;-73
2023/08/24 07:44:10;;;;;;;1999.90;999.90;;;25.30;99.90;;;;;;5066407;28;20056;-73
2023/08/24 07:46:35;;;;;;;1999.90;999.90;;;25.30;99.90;;;;;;5072197;28;20048;-77
2023/08/24 07:49:01;;;;;;;1999.90;999.90;;;25.30;99.90;;;;;;5067462;28;20526;-77
2023/08/24 07:51:28;;;;;;;1999.90;999.90;;;25.20;99.90;;;;;;5071310;28;20029;-77
2023/08/24 07:53:54;;;;;;;1999.90;999.90;;;25.10;99.90;;;;;;5071700;28;20506;-74
2023/08/24 07:56:20;;;;;;;1999.90;999.90;;;25.10;99.90;;;;;;5067774;28;20073;-74
2023/08/24 07:58:45;;;;;;;1999.90;999.90;;;25.10;99.90;;;;;;5058905;28;20032;-74
2023/08/24 08:01:12;;;;;;;1999.90;999.90;;;25.10;99.90;;;;;;5072192;28;20016;-76
2023/08/24 08:03:37;;;;;;;1999.90;999.90;;;25.00;99.90;;;;;;5073391;28;20048;-76
2023/08/24 08:06:04;;;;;;;1999.90;999.90;;;25.00;99.90;;;;;;5068527;28;20032;-76
2023/08/24 08:08:30;;;;;;;1999.90;999.90;;;25.10;99.90;;;;;;5068889;28;20028;-74
2023/08/24 08:11:00;;;;;;;1999.90;999.90;;;25.30;99.90;;;;;;5063683;28;20029;-75
2023/08/24 08:13:26;;;;;;;1999.90;999.90;;;25.50;99.90;;;;;;5064649;28;20434;-75
2023/08/24 08:15:52;;;;;;;1999.90;999.90;;;25.30;99.90;;;;;;5067154;28;20086;-75
2023/08/24 08:18:17;;;;;;;1999.90;999.90;;;25.00;99.90;;;;;;5065357;28;20032;-76
2023/08/24 08:20:43;;;;;;;1999.90;999.90;;;24.70;99.90;;;;;;5071614;28;20418;-72
2023/08/24 08:23:08;;;;;;;1999.90;999.90;;;24.50;99.90;;;;;;5070614;28;20028;-73
2023/08/24 08:25:34;;;;;;;1999.90;999.90;;;24.50;99.90;;;;;;5072046;28;20047;-72
2023/08/24 08:28:00;;;;;;;1999.90;999.90;;;24.40;99.90;;;;;;5066461;28;20025;-72
2023/08/24 08:30:25;;;;;;;1999.90;999.90;;;24.50;99.90;;;;;;5054676;28;20066;-73
2023/08/24 08:32:52;;;;;;;1999.90;999.90;;;24.60;99.90;;;;;;5066284;28;20036;-72
2023/08/24 08:35:18;;;;;;;1999.90;999.90;;;24.70;99.90;;;;;;5067978;28;20123;-73
2023/08/24 08:37:45;;;;;;;1999.90;999.90;;;24.80;99.90;;;;;;5063867;28;20033;-75
2023/08/24 08:40:11;;;;;;;1999.90;999.90;;;25.10;99.90;;;;;;5071492;28;20095;-73
2023/08/24 08:42:37;;;;;;;1999.90;999.90;;;25.50;99.90;;;;;;5075568;28;20037;-73
2023/08/24 08:45:08;;;;;;;1999.90;999.90;;;27.60;99.90;;;;;;5074375;28;20148;-77
2023/08/24 08:47:34;;;;;;;1999.90;999.90;;;28.90;99.90;;;;;;5072982;28;20016;-73
2023/08/24 08:50:05;;;;;;;1999.90;999.90;;;27.70;99.90;;;;;;5071838;28;20031;-76
2023/08/24 08:52:32;;;;;;;1999.90;999.90;;;26.90;99.90;;;;;;5072542;28;20056;-76
2023/08/24 08:54:58;;;;;;;1999.90;999.90;;;26.30;99.90;;;;;;5075813;28;20029;-76
2023/08/24 08:57:25;;;;;;;1999.90;999.90;;;26.00;99.90;;;;;;5064306;28;20070;-72
2023/08/24 08:59:52;;;;;;;1999.90;999.90;;;25.90;99.90;;;;;;5061297;28;20426;-72
2023/08/24 09:02:19;;;;;;;1999.90;999.90;;;26.10;99.90;;;;;;5064986;28;20131;-73
2023/08/24 09:04:47;;;;;;;1999.90;999.90;;;26.60;99.90;;;;;;5060942;28;20387;-73
2023/08/24 09:07:16;;;;;;;1999.90;999.90;;;27.80;99.90;;;;;;5061879;28;20421;-75
2023/08/24 09:09:42;;;;;;;1999.90;999.90;;;27.70;99.90;;;;;;5063554;28;20052;-75
2023/08/24 09:12:08;;;;;;;1999.90;999.90;;;27.50;99.90;;;;;;5105464;27;20766;-73
2023/08/24 09:14:34;;;;;;;1999.90;999.90;;;28.10;99.90;;;;;;5071816;28;20055;-74
2023/08/24 09:17:00;;;;;;;1999.90;999.90;;;28.70;99.90;;;;;;5073499;28;20044;-76
2023/08/24 09:19:35;;;;;;;1999.90;999.90;;;28.10;99.90;;;;;;5069183;28;20025;-76
2023/08/24 09:22:02;;;;;;;1999.90;999.90;;;27.90;99.90;;;;;;5070150;28;20446;-72
2023/08/24 09:24:34;;;;;;;1999.90;999.90;;;27.70;99.90;;;;;;5070881;28;20060;-74
2023/08/24 09:27:03;;;;;;;;;;;27.60;99.90;;;;;;5076341;28;20093;-73
2023/08/24 09:29:37;;;;;;;1999.90;999.90;;;27.70;99.90;;;;;;5074453;28;19936;-77
2023/08/24 09:32:02;;;;;;;1999.90;999.90;;;28.70;99.90;;;;;;5071354;28;20545;-76
2023/08/24 09:34:30;;;;;;;1999.90;999.90;;;28.30;99.90;;;;;;5075811;28;20025;-75
2023/08/24 09:36:57;;;;;;;1999.90;999.90;;;27.80;99.90;;;;;;5071793;28;20036;-76
2023/08/24 09:39:22;;;;;;;1999.90;999.90;;;27.60;99.90;;;;;;5079560;28;20066;-73
2023/08/24 09:41:50;;;;;;;1999.90;999.90;;;27.40;99.90;;;;;;5082514;28;20056;-76
2023/08/24 09:44:17;;;;;;;1999.90;999.90;;;28.50;99.90;;;;;;5076477;28;20030;-75
2023/08/24 09:46:43;;;;;;;1999.90;999.90;;;30.80;99.90;;;;;;5071426;28;20020;-73
2023/08/24 09:49:11;;;;;;;1999.90;999.90;;;33.00;99.90;;;;;;5077384;28;20024;-76
2023/08/24 09:51:39;;;;;;;1999.90;999.90;;;33.80;99.90;;;;;;5071175;28;20063;-72
2023/08/24 09:54:08;;;;;;;1999.90;999.90;;;31.90;99.90;;;;;;5064943;28;20120;-72
2023/08/24 09:56:39;;;;;;;1999.90;999.90;;;32.10;99.90;;;;;;5073183;28;20020;-76
2023/08/24 09:59:18;;;;;;;1999.90;999.90;;;33.30;99.90;;;;;;5072300;28;20059;-74
2023/08/24 10:01:47;;;;;;;1999.90;999.90;;;35.20;99.90;;;;;;5073490;28;20793;-75
2023/08/24 10:04:15;;;;;;;1999.90;999.90;;;35.10;99.90;;;;;;5071286;28;20491;-72
2023/08/24 10:06:44;;;;;;;1999.90;999.90;;;36.00;99.90;;;;;;5078415;28;20118;-72
2023/08/24 10:09:19;;;;;;;1999.90;999.90;;;36.80;99.90;;;;;;5073979;28;20486;-74
2023/08/24 10:11:52;;;;;;;1999.90;999.90;;;34.90;99.90;;;;;;5075267;28;20078;-74
2023/08/24 10:14:30;;;;;;;1999.90;999.90;;;35.30;99.90;;;;;;5075106;28;20028;-74
2023/08/24 10:16:58;;;;;;;1999.90;999.90;;;33.50;99.90;;;;;;5075444;28;20123;-72
2023/08/24 10:19:25;;;;;;;1999.90;999.90;;;31.90;99.90;;;;;;5076492;28;20094;-73
2023/08/24 10:21:53;;;;;;;1999.90;999.90;;;33.10;99.90;;;;;;5074708;28;20032;-77
2023/08/24 10:24:21;;;;;;;1999.90;999.90;;;34.70;99.90;;;;;;5075914;28;20029;-74
2023/08/24 10:26:47;;;;;;;1999.90;999.90;;;35.60;99.90;;;;;;5079642;28;20521;-73
2023/08/24 10:29:13;;;;;;;1999.90;999.90;;;35.80;99.90;;;;;;5087562;28;20038;-75
2023/08/24 10:31:41;;;;;;;1999.90;999.90;;;35.80;99.60;;;;;;5071665;28;20060;-70
2023/08/24 10:34:08;;;;;;;1999.90;999.90;;;35.50;99.60;;;;;;5073131;28;20414;-74
2023/08/24 10:36:34;;;;;;;1999.90;999.90;;;35.20;99.60;;;;;;5076974;28;20047;-74
2023/08/24 10:39:06;;;;;;;1999.90;999.90;;;35.10;99.80;;;;;;5071074;28;20090;-77
2023/08/24 10:41:51;;;;;;;1999.90;999.90;;;34.50;99.90;;;;;;5071275;28;20047;-76
2023/08/24 10:44:37;;;;;;;1999.90;999.90;;;33.20;99.90;;;;;;5071332;28;20052;-73
2023/08/24 10:47:06;;;;;;;1999.90;999.90;;;33.20;99.90;;;;;;5082167;28;20024;-76
2023/08/24 10:49:32;;;;;;;1999.90;999.90;;;32.70;99.90;;;;;;5076231;28;20809;-76
2023/08/24 10:51:58;;;;;;;1999.90;999.90;;;32.50;99.90;;;;;;5081276;28;20028;-76
2023/08/24 10:54:32;;;;;;;1999.90;999.90;;;31.90;99.90;;;;;;5085888;28;20494;-75
2023/08/24 10:57:03;;;;;;;1999.90;999.90;;;31.80;99.90;;;;;;5069828;28;20032;-73
2023/08/24 10:59:34;;;;;;;1999.90;999.90;;;31.80;99.90;;;;;;5072644;28;20423;-75
2023/08/24 11:02:01;;;;;;;1999.90;999.90;;;31.80;99.90;;;;;;5067708;28;20401;-76
2023/08/24 11:04:27;;;;;;;1999.90;999.90;;;32.40;99.90;;;;;;5072952;28;20036;-76
2023/08/24 11:06:57;;;;;;;1999.90;999.90;;;32.60;99.90;;;;;;5075501;28;20028;-76
2023/08/24 11:09:23;;;;;;;1999.90;999.90;;;32.20;99.90;;;;;;5078723;28;20028;-73
2023/08/24 11:12:00;;;;;;;1999.90;999.90;;;31.50;99.90;;;;;;5081132;28;20027;-73
2023/08/24 11:14:27;;;;;;;1999.90;999.90;;;31.30;99.90;;;;;;5072512;28;20036;-76
2023/08/24 11:16:54;;;;;;;1999.90;999.90;;;31.20;99.90;;;;;;5069023;28;20055;-76
2023/08/24 11:19:20;;;;;;;1999.90;999.90;;;31.50;99.90;;;;;;5069646;28;20024;-77
2023/08/24 11:21:46;;;;;;;1999.90;999.90;;;32.40;99.90;;;;;;5071040;28;20028;-73
2023/08/24 11:24:16;;;;;;;1999.90;999.90;;;33.10;99.90;;;;;;5060620;28;20531;-73
2023/08/24 11:26:47;;;;;;;1999.90;999.90;;;33.30;99.90;;;;;;5076303;28;20021;-76
2023/08/24 11:29:13;;;;;;;1999.90;999.90;;;32.90;99.90;;;;;;5074421;28;20028;-76
2023/08/24 11:31:39;;;;;;;1999.90;999.90;;;32.20;99.90;;;;;;5069973;28;20459;-75
2023/08/24 11:34:07;;;;;;;1999.90;999.90;;;31.70;99.90;;;;;;5074430;28;20115;-76
2023/08/24 11:36:46;;;;;;;1999.90;999.90;;;32.30;99.90;;;;;;5070427;28;20029;-73
2023/08/24 11:39:18;;;;;;;1999.90;999.90;;;31.90;99.90;;;;;;5069333;28;20064;-76
2023/08/24 11:41:44;;;;;;;1999.90;999.90;;;31.90;99.90;;;;;;5069508;28;20123;-75
2023/08/24 11:44:10;;;;;;;1999.90;999.90;;;32.40;99.90;;;;;;5069683;28;20431;-75
2023/08/24 11:46:37;;;;;;;1999.90;999.90;;;32.70;99.90;;;;;;5070176;28;20016;-75
2023/08/24 11:49:06;;;;;;;1999.90;999.90;;;32.40;99.90;;;;;;5069258;28;20029;-72
2023/08/24 11:51:34;;;;;;;1999.90;999.90;;;32.40;99.90;;;;;;5074400;28;20043;-77
2023/08/24 11:53:59;;;;;;;1999.90;999.90;;;32.30;99.90;;;;;;5069443;28;20107;-76
2023/08/24 11:56:25;;;;;;;1999.90;999.90;;;32.10;99.90;;;;;;5070046;28;20093;-76